sensor_id;sensor_type;location;lat;lon;timestamp;pressure;altitude;pressure_sealevel;temperature;humidity
51781;BME280;37844;57.126;24.288;2023-02-28T00:00:45;102621.09;;;1.59;100.00
51781;BME280;37844;57.126;24.288;2023-02-28T00:03:20;102613.97;;;1.65;100.00
51781;BME280;37844;57.126;24.288;2023-02-28T00:05:55;102609.53;;;1.62;100.00
51781;BME280;37844;57.126;24.288;2023-02-28T00:08:31;102603.59;;;1.62;100.00
51781;BME280;37844;57.126;24.288;2023-02-28T00:11:07;102602.28;;;1.67;100.00
51781;BME280;37844;57.126;24.288;2023-02-28T00:13:44;102602.56;;;1.60;100.00
51781;BME280;37844;57.126;24.288;2023-02-28T00:16:21;102600.13;;;1.61;100.00
51781;BME280;37844;57.126;24.288;2023-02-28T00:18:57;102599.25;;;1.61;100.00
51781;BME280;37844;57.126;24.288;2023-02-28T00:21:32;102590.38;;;1.56;100.00
51781;BME280;37844;57.126;24.288;2023-02-28T00:24:07;102595.59;;;1.57;100.00
51781;BME280;37844;57.126;24.288;2023-02-28T00:26:43;102587.09;;;1.46;100.00
51781;BME280;37844;57.126;24.288;2023-02-28T00:29:18;102590.53;;;1.47;100.00
51781;BME280;37844;57.126;24.288;2023-02-28T00:31:53;102583.97;;;1.39;100.00
51781;BME280;37844;57.126;24.288;2023-02-28T00:34:29;102585.63;;;1.38;100.00
51781;BME280;37844;57.126;24.288;2023-02-28T00:37:05;102581.84;;;1.33;100.00
51781;BME280;37844;57.126;24.288;2023-02-28T00:39:40;102581.47;;;1.29;100.00
51781;BME280;37844;57.126;24.288;2023-02-28T00:42:16;102578.56;;;1.24;100.00
51781;BME280;37844;57.126;24.288;2023-02-28T00:44:51;102574.50;;;1.26;100.00
51781;BME280;37844;57.126;24.288;2023-02-28T00:47:26;102567.88;;;1.18;100.00
51781;BME280;37844;57.126;24.288;2023-02-28T00:50:02;102580.44;;;1.16;100.00
51781;BME280;37844;57.126;24.288;2023-02-28T00:52:38;102571.94;;;1.16;100.00
51781;BME280;37844;57.126;24.288;2023-02-28T00:55:13;102566.63;;;1.13;100.00
51781;BME280;37844;57.126;24.288;2023-02-28T00:57:48;102570.06;;;1.13;100.00
51781;BME280;37844;57.126;24.288;2023-02-28T01:00:24;102562.44;;;1.13;100.00
51781;BME280;37844;57.126;24.288;2023-02-28T01:02:59;102565.84;;;1.14;100.00
51781;BME280;37844;57.126;24.288;2023-02-28T01:05:34;102565.84;;;1.14;100.00
51781;BME280;37844;57.126;24.288;2023-02-28T01:08:10;102572.34;;;1.10;100.00
51781;BME280;37844;57.126;24.288;2023-02-28T01:10:45;102565.75;;;1.02;100.00
51781;BME280;37844;57.126;24.288;2023-02-28T01:13:20;102561.84;;;0.95;100.00
51781;BME280;37844;57.126;24.288;2023-02-28T01:15:56;102563.63;;;0.96;100.00
51781;BME280;37844;57.126;24.288;2023-02-28T01:18:31;102567.03;;;0.97;100.00
51781;BME280;37844;57.126;24.288;2023-02-28T01:21:08;102568.94;;;0.99;100.00
51781;BME280;37844;57.126;24.288;2023-02-28T01:23:43;102570.72;;;1.00;100.00
51781;BME280;37844;57.126;24.288;2023-02-28T01:26:20;102571.63;;;1.01;100.00
51781;BME280;37844;57.126;24.288;2023-02-28T01:28:56;102580.00;;;0.90;100.00
51781;BME280;37844;57.126;24.288;2023-02-28T01:31:31;102573.41;;;0.92;100.00
51781;BME280;37844;57.126;24.288;2023-02-28T01:34:06;102564.53;;;0.87;100.00
51781;BME280;37844;57.126;24.288;2023-02-28T01:36:42;102572.75;;;0.94;100.00
51781;BME280;37844;57.126;24.288;2023-02-28T01:39:17;102571.75;;;0.92;100.00
51781;BME280;37844;57.126;24.288;2023-02-28T01:41:52;102564.75;;;0.90;100.00
51781;BME280;37844;57.126;24.288;2023-02-28T01:47:22;102557.31;;;0.81;100.00
51781;BME280;37844;57.126;24.288;2023-02-28T01:49:58;102556.91;;;0.87;100.00
51781;BME280;37844;57.126;24.288;2023-02-28T01:52:35;102555.16;;;0.86;100.00
51781;BME280;37844;57.126;24.288;2023-02-28T01:55:11;102555.25;;;0.87;100.00
51781;BME280;37844;57.126;24.288;2023-02-28T01:57:51;102552.06;;;0.90;100.00
51781;BME280;37844;57.126;24.288;2023-02-28T02:00:28;102550.31;;;0.89;100.00
51781;BME280;37844;57.126;24.288;2023-02-28T02:03:08;102544.09;;;0.85;100.00
51781;BME280;37844;57.126;24.288;2023-02-28T02:05:44;102535.34;;;0.81;100.00
51781;BME280;37844;57.126;24.288;2023-02-28T02:08:23;102537.38;;;0.86;100.00
51781;BME280;37844;57.126;24.288;2023-02-28T02:11:00;102533.41;;;0.89;100.00
51781;BME280;37844;57.126;24.288;2023-02-28T02:16:21;102524.56;;;0.84;100.00
51781;BME280;37844;57.126;24.288;2023-02-28T02:19:17;102533.81;;;0.83;100.00
51781;BME280;37844;57.126;24.288;2023-02-28T02:36:13;102533.69;;;0.82;100.00
51781;BME280;37844;57.126;24.288;2023-02-28T02:38:58;102537.00;;;0.81;100.00
51781;BME280;37844;57.126;24.288;2023-02-28T02:44:23;102542.09;;;0.81;100.00
51781;BME280;37844;57.126;24.288;2023-02-28T02:47:02;102542.56;;;0.87;100.00
51781;BME280;37844;57.126;24.288;2023-02-28T02:49:40;102539.91;;;0.86;100.00
51781;BME280;37844;57.126;24.288;2023-02-28T02:52:18;102536.38;;;0.83;100.00
51781;BME280;37844;57.126;24.288;2023-02-28T02:54:56;102531.78;;;0.79;100.00
51781;BME280;37844;57.126;24.288;2023-02-28T02:57:36;102531.94;;;0.81;100.00
51781;BME280;37844;57.126;24.288;2023-02-28T03:00:14;102524.03;;;0.88;100.00
51781;BME280;37844;57.126;24.288;2023-02-28T03:02:49;102524.16;;;0.90;100.00
51781;BME280;37844;57.126;24.288;2023-02-28T03:05:34;102520.50;;;0.86;100.00
51781;BME280;37844;57.126;24.288;2023-02-28T03:08:11;102516.16;;;0.85;100.00
51781;BME280;37844;57.126;24.288;2023-02-28T03:10:50;102515.66;;;0.89;100.00
51781;BME280;37844;57.126;24.288;2023-02-28T03:21:28;102505.09;;;0.95;100.00
51781;BME280;37844;57.126;24.288;2023-02-28T03:24:16;102492.16;;;0.92;100.00
51781;BME280;37844;57.126;24.288;2023-02-28T03:27:07;102486.19;;;0.91;100.00
51781;BME280;37844;57.126;24.288;2023-02-28T03:29:58;102475.28;;;0.92;100.00
51781;BME280;37844;57.126;24.288;2023-02-28T03:32:36;102474.00;;;0.97;100.00
51781;BME280;37844;57.126;24.288;2023-02-28T03:35:15;102475.13;;;1.01;100.00
51781;BME280;37844;57.126;24.288;2023-02-28T03:37:59;102468.28;;;1.00;100.00
51781;BME280;37844;57.126;24.288;2023-02-28T03:40:36;102473.59;;;1.03;100.00
51781;BME280;37844;57.126;24.288;2023-02-28T03:43:14;102471.66;;;1.11;100.00
51781;BME280;37844;57.126;24.288;2023-02-28T03:45:53;102476.22;;;1.15;100.00
51781;BME280;37844;57.126;24.288;2023-02-28T03:48:40;102476.69;;;1.21;100.00
51781;BME280;37844;57.126;24.288;2023-02-28T03:51:18;102469.56;;;1.27;100.00
51781;BME280;37844;57.126;24.288;2023-02-28T03:53:57;102462.94;;;1.29;100.00
51781;BME280;37844;57.126;24.288;2023-02-28T03:57:22;102459.88;;;1.33;100.00
51781;BME280;37844;57.126;24.288;2023-02-28T03:59:30;102449.44;;;1.40;100.00
51781;BME280;37844;57.126;24.288;2023-02-28T04:02:09;102445.69;;;1.47;100.00
51781;BME280;37844;57.126;24.288;2023-02-28T04:04:44;102442.97;;;1.56;100.00
51781;BME280;37844;57.126;24.288;2023-02-28T04:07:23;102436.34;;;1.58;100.00
51781;BME280;37844;57.126;24.288;2023-02-28T04:09:58;102438.72;;;1.66;100.00
51781;BME280;37844;57.126;24.288;2023-02-28T04:12:34;102433.53;;;1.65;100.00
51781;BME280;37844;57.126;24.288;2023-02-28T04:15:09;102419.63;;;1.72;100.00
51781;BME280;37844;57.126;24.288;2023-02-28T04:17:46;102426.47;;;1.73;100.00
51781;BME280;37844;57.126;24.288;2023-02-28T04:20:21;102421.84;;;1.79;100.00
51781;BME280;37844;57.126;24.288;2023-02-28T04:22:56;102419.00;;;1.86;100.00
51781;BME280;37844;57.126;24.288;2023-02-28T04:25:31;102411.91;;;1.82;100.00
51781;BME280;37844;57.126;24.288;2023-02-28T04:28:07;102418.34;;;1.88;100.00
51781;BME280;37844;57.126;24.288;2023-02-28T04:30:42;102414.56;;;1.83;100.00
51781;BME280;37844;57.126;24.288;2023-02-28T04:33:17;102413.78;;;1.84;100.00
51781;BME280;37844;57.126;24.288;2023-02-28T04:36:03;102407.53;;;1.91;100.00
51781;BME280;37844;57.126;24.288;2023-02-28T04:38:39;102385.94;;;1.86;100.00
51781;BME280;37844;57.126;24.288;2023-02-28T04:41:14;102393.81;;;1.89;100.00
51781;BME280;37844;57.126;24.288;2023-02-28T04:43:53;102386.28;;;1.90;100.00
51781;BME280;37844;57.126;24.288;2023-02-28T04:46:28;102382.44;;;1.96;100.00
51781;BME280;37844;57.126;24.288;2023-02-28T04:49:03;102383.31;;;1.96;100.00
51781;BME280;37844;57.126;24.288;2023-02-28T04:51:39;102380.56;;;1.93;100.00
51781;BME280;37844;57.126;24.288;2023-02-28T04:54:14;102379.31;;;1.88;100.00
51781;BME280;37844;57.126;24.288;2023-02-28T04:56:51;102370.16;;;1.90;100.00
51781;BME280;37844;57.126;24.288;2023-02-28T04:59:26;102363.41;;;1.90;100.00
51781;BME280;37844;57.126;24.288;2023-02-28T05:02:02;102374.13;;;1.86;100.00
51781;BME280;37844;57.126;24.288;2023-02-28T05:04:41;102374.34;;;1.89;100.00
51781;BME280;37844;57.126;24.288;2023-02-28T05:07:16;102372.69;;;1.90;100.00
51781;BME280;37844;57.126;24.288;2023-02-28T05:09:52;102373.94;;;1.95;100.00
51781;BME280;37844;57.126;24.288;2023-02-28T05:12:28;102375.59;;;1.95;100.00
51781;BME280;37844;57.126;24.288;2023-02-28T05:15:03;102373.25;;;1.98;100.00
51781;BME280;37844;57.126;24.288;2023-02-28T05:17:39;102359.41;;;1.94;100.00
51781;BME280;37844;57.126;24.288;2023-02-28T05:20:15;102369.72;;;1.96;100.00
51781;BME280;37844;57.126;24.288;2023-02-28T05:22:50;102366.50;;;1.98;100.00
51781;BME280;37844;57.126;24.288;2023-02-28T05:25:27;102365.72;;;1.99;100.00
51781;BME280;37844;57.126;24.288;2023-02-28T05:28:03;102367.63;;;2.02;100.00
51781;BME280;37844;57.126;24.288;2023-02-28T05:30:38;102373.47;;;2.01;100.00
51781;BME280;37844;57.126;24.288;2023-02-28T05:33:13;102365.84;;;2.01;100.00
51781;BME280;37844;57.126;24.288;2023-02-28T05:35:49;102375.34;;;2.03;100.00
51781;BME280;37844;57.126;24.288;2023-02-28T05:38:24;102366.06;;;2.04;100.00
51781;BME280;37844;57.126;24.288;2023-02-28T05:40:59;102362.97;;;1.96;100.00
51781;BME280;37844;57.126;24.288;2023-02-28T05:43:35;102363.44;;;2.02;100.00
51781;BME280;37844;57.126;24.288;2023-02-28T05:46:11;102364.66;;;2.07;100.00
51781;BME280;37844;57.126;24.288;2023-02-28T05:48:46;102369.63;;;2.18;100.00
51781;BME280;37844;57.126;24.288;2023-02-28T05:51:22;102361.91;;;2.16;100.00
51781;BME280;37844;57.126;24.288;2023-02-28T05:53:58;102365.31;;;2.17;100.00
51781;BME280;37844;57.126;24.288;2023-02-28T05:56:34;102372.84;;;2.15;100.00
51781;BME280;37844;57.126;24.288;2023-02-28T05:59:10;102370.75;;;2.21;100.00
51781;BME280;37844;57.126;24.288;2023-02-28T06:01:45;102355.50;;;2.21;100.00
51781;BME280;37844;57.126;24.288;2023-02-28T06:04:24;102360.91;;;2.14;100.00
51781;BME280;37844;57.126;24.288;2023-02-28T06:06:59;102363.34;;;2.24;100.00
51781;BME280;37844;57.126;24.288;2023-02-28T06:09:35;102365.75;;;2.23;100.00
51781;BME280;37844;57.126;24.288;2023-02-28T06:12:10;102363.66;;;2.29;100.00
51781;BME280;37844;57.126;24.288;2023-02-28T06:14:45;102359.78;;;2.34;100.00
51781;BME280;37844;57.126;24.288;2023-02-28T06:17:21;102356.69;;;2.38;100.00
51781;BME280;37844;57.126;24.288;2023-02-28T06:19:56;102353.69;;;2.44;100.00
51781;BME280;37844;57.126;24.288;2023-02-28T06:22:31;102346.81;;;2.78;100.00
51781;BME280;37844;57.126;24.288;2023-02-28T06:25:07;102350.56;;;3.20;100.00
51781;BME280;37844;57.126;24.288;2023-02-28T06:27:42;102332.31;;;3.14;100.00
51781;BME280;37844;57.126;24.288;2023-02-28T06:30:18;102335.38;;;3.22;100.00
51781;BME280;37844;57.126;24.288;2023-02-28T06:33:00;102342.66;;;3.29;100.00
51781;BME280;37844;57.126;24.288;2023-02-28T06:35:36;102337.13;;;3.23;100.00
51781;BME280;37844;57.126;24.288;2023-02-28T06:38:11;102341.72;;;3.40;100.00
51781;BME280;37844;57.126;24.288;2023-02-28T06:40:52;102334.97;;;3.66;100.00
51781;BME280;37844;57.126;24.288;2023-02-28T06:43:28;102343.38;;;4.16;100.00
51781;BME280;37844;57.126;24.288;2023-02-28T06:46:05;102342.66;;;4.59;100.00
51781;BME280;37844;57.126;24.288;2023-02-28T06:48:42;102338.22;;;5.11;100.00
51781;BME280;37844;57.126;24.288;2023-02-28T06:51:19;102338.78;;;5.63;100.00
51781;BME280;37844;57.126;24.288;2023-02-28T06:53:59;102335.00;;;6.16;100.00
51781;BME280;37844;57.126;24.288;2023-02-28T06:56:35;102328.06;;;6.76;100.00
51781;BME280;37844;57.126;24.288;2023-02-28T06:59:10;102323.34;;;7.16;100.00
51781;BME280;37844;57.126;24.288;2023-02-28T07:01:45;102322.22;;;7.44;100.00
51781;BME280;37844;57.126;24.288;2023-02-28T07:04:21;102326.22;;;7.55;100.00
51781;BME280;37844;57.126;24.288;2023-02-28T07:06:57;102330.00;;;7.62;100.00
51781;BME280;37844;57.126;24.288;2023-02-28T07:09:32;102328.31;;;7.62;100.00
51781;BME280;37844;57.126;24.288;2023-02-28T07:12:07;102323.19;;;7.80;100.00
51781;BME280;37844;57.126;24.288;2023-02-28T07:14:43;102331.94;;;8.02;100.00
51781;BME280;37844;57.126;24.288;2023-02-28T07:17:18;102310.88;;;8.09;100.00
51781;BME280;37844;57.126;24.288;2023-02-28T07:19:53;102301.22;;;8.21;100.00
51781;BME280;37844;57.126;24.288;2023-02-28T07:22:29;102297.47;;;8.33;100.00
51781;BME280;37844;57.126;24.288;2023-02-28T07:25:04;102292.25;;;8.49;100.00
51781;BME280;37844;57.126;24.288;2023-02-28T07:27:40;102283.38;;;8.80;100.00
51781;BME280;37844;57.126;24.288;2023-02-28T07:30:15;102272.44;;;8.84;100.00
51781;BME280;37844;57.126;24.288;2023-02-28T07:32:51;102271.38;;;8.61;100.00
51781;BME280;37844;57.126;24.288;2023-02-28T07:35:26;102270.38;;;8.77;100.00
51781;BME280;37844;57.126;24.288;2023-02-28T07:38:02;102262.94;;;8.63;100.00
51781;BME280;37844;57.126;24.288;2023-02-28T07:40:38;102263.13;;;8.68;100.00
51781;BME280;37844;57.126;24.288;2023-02-28T07:43:13;102257.16;;;9.06;100.00
51781;BME280;37844;57.126;24.288;2023-02-28T07:45:48;102254.06;;;9.15;100.00
51781;BME280;37844;57.126;24.288;2023-02-28T07:48:24;102247.50;;;9.22;100.00
51781;BME280;37844;57.126;24.288;2023-02-28T07:50:59;102243.81;;;9.36;100.00
51781;BME280;37844;57.126;24.288;2023-02-28T07:53:35;102244.63;;;9.56;100.00
51781;BME280;37844;57.126;24.288;2023-02-28T07:56:10;102254.75;;;9.72;100.00
51781;BME280;37844;57.126;24.288;2023-02-28T07:58:45;102265.41;;;9.82;100.00
51781;BME280;37844;57.126;24.288;2023-02-28T08:01:21;102265.06;;;10.16;100.00
51781;BME280;37844;57.126;24.288;2023-02-28T08:03:56;102261.84;;;10.43;100.00
51781;BME280;37844;57.126;24.288;2023-02-28T08:06:32;102266.69;;;10.57;98.81
51781;BME280;37844;57.126;24.288;2023-02-28T08:09:07;102264.78;;;11.00;97.21
51781;BME280;37844;57.126;24.288;2023-02-28T08:11:42;102263.19;;;11.28;94.03
51781;BME280;37844;57.126;24.288;2023-02-28T08:14:18;102258.03;;;11.80;90.80
51781;BME280;37844;57.126;24.288;2023-02-28T08:16:53;102202.47;;;12.20;86.67
51781;BME280;37844;57.126;24.288;2023-02-28T08:19:29;102242.81;;;13.07;83.13
51781;BME280;37844;57.126;24.288;2023-02-28T08:22:05;102241.50;;;13.91;79.42
51781;BME280;37844;57.126;24.288;2023-02-28T08:24:41;102222.28;;;13.82;76.11
51781;BME280;37844;57.126;24.288;2023-02-28T08:27:16;102225.63;;;14.15;74.10
51781;BME280;37844;57.126;24.288;2023-02-28T08:29:52;102217.97;;;14.61;71.60
51781;BME280;37844;57.126;24.288;2023-02-28T08:32:27;102226.97;;;14.78;68.68
51781;BME280;37844;57.126;24.288;2023-02-28T08:35:03;102225.06;;;15.67;67.06
51781;BME280;37844;57.126;24.288;2023-02-28T08:37:39;102220.41;;;16.04;63.78
51781;BME280;37844;57.126;24.288;2023-02-28T08:40:14;102228.53;;;16.25;62.43
51781;BME280;37844;57.126;24.288;2023-02-28T08:42:53;102206.09;;;17.13;60.11
51781;BME280;37844;57.126;24.288;2023-02-28T08:45:28;102212.38;;;17.35;58.50
51781;BME280;37844;57.126;24.288;2023-02-28T08:48:03;102214.97;;;17.33;56.98
51781;BME280;37844;57.126;24.288;2023-02-28T08:50:39;102205.63;;;16.68;56.16
51781;BME280;37844;57.126;24.288;2023-02-28T08:53:14;102198.88;;;16.84;56.00
51781;BME280;37844;57.126;24.288;2023-02-28T08:55:57;102194.44;;;16.75;55.69
51781;BME280;37844;57.126;24.288;2023-02-28T08:58:32;102193.03;;;17.10;54.55
51781;BME280;37844;57.126;24.288;2023-02-28T09:01:12;102187.69;;;16.93;54.38
51781;BME280;37844;57.126;24.288;2023-02-28T09:03:48;102184.41;;;16.33;54.30
51781;BME280;37844;57.126;24.288;2023-02-28T09:06:24;102197.00;;;16.02;55.03
51781;BME280;37844;57.126;24.288;2023-02-28T09:09:00;102210.63;;;15.86;55.22
51781;BME280;37844;57.126;24.288;2023-02-28T09:11:44;102217.63;;;15.35;56.12
51781;BME280;37844;57.126;24.288;2023-02-28T09:14:19;102214.00;;;14.78;56.98
51781;BME280;37844;57.126;24.288;2023-02-28T09:16:55;102207.63;;;14.21;58.52
51781;BME280;37844;57.126;24.288;2023-02-28T09:19:30;102210.34;;;13.88;60.03
51781;BME280;37844;57.126;24.288;2023-02-28T09:22:19;102215.78;;;13.63;61.00
51781;BME280;37844;57.126;24.288;2023-02-28T09:24:54;102209.34;;;13.47;62.58
51781;BME280;37844;57.126;24.288;2023-02-28T09:27:29;102198.56;;;13.65;61.65
51781;BME280;37844;57.126;24.288;2023-02-28T09:30:05;102187.81;;;12.83;63.36
51781;BME280;37844;57.126;24.288;2023-02-28T09:32:47;102180.78;;;12.77;64.50
51781;BME280;37844;57.126;24.288;2023-02-28T09:35:33;102169.13;;;12.61;65.29
51781;BME280;37844;57.126;24.288;2023-02-28T09:38:09;102153.28;;;12.49;66.24
51781;BME280;37844;57.126;24.288;2023-02-28T09:40:56;102172.13;;;12.15;67.71
51781;BME280;37844;57.126;24.288;2023-02-28T09:43:33;102185.72;;;11.80;69.04
51781;BME280;37844;57.126;24.288;2023-02-28T09:46:29;102203.94;;;11.85;69.84
51781;BME280;37844;57.126;24.288;2023-02-28T09:49:10;102208.59;;;11.70;70.55
51781;BME280;37844;57.126;24.288;2023-02-28T09:52:03;102203.59;;;11.47;71.35
51781;BME280;37844;57.126;24.288;2023-02-28T09:54:39;102194.81;;;11.42;73.11
51781;BME280;37844;57.126;24.288;2023-02-28T10:02:57;102215.50;;;11.43;73.40
51781;BME280;37844;57.126;24.288;2023-02-28T10:05:38;102216.16;;;11.63;73.40
51781;BME280;37844;57.126;24.288;2023-02-28T10:08:14;102207.41;;;11.58;73.69
51781;BME280;37844;57.126;24.288;2023-02-28T10:10:53;102202.72;;;11.46;73.87
51781;BME280;37844;57.126;24.288;2023-02-28T10:13:35;102198.59;;;11.26;74.99
51781;BME280;37844;57.126;24.288;2023-02-28T10:16:13;102198.06;;;10.85;76.41
51781;BME280;37844;57.126;24.288;2023-02-28T10:18:57;102196.69;;;10.47;78.25
51781;BME280;37844;57.126;24.288;2023-02-28T10:21:56;102194.91;;;10.01;81.10
51781;BME280;37844;57.126;24.288;2023-02-28T10:24:34;102186.44;;;9.82;83.18
51781;BME280;37844;57.126;24.288;2023-02-28T10:27:24;102193.09;;;9.54;86.05
51781;BME280;37844;57.126;24.288;2023-02-28T10:30:00;102179.41;;;9.55;86.07
51781;BME280;37844;57.126;24.288;2023-02-28T10:32:37;102183.09;;;9.20;88.86
51781;BME280;37844;57.126;24.288;2023-02-28T10:35:18;102178.72;;;9.18;90.42
51781;BME280;37844;57.126;24.288;2023-02-28T10:37:58;102163.97;;;8.93;91.97
51781;BME280;37844;57.126;24.288;2023-02-28T10:40:34;102158.91;;;8.55;94.61
51781;BME280;37844;57.126;24.288;2023-02-28T10:51:12;102197.19;;;8.12;100.00
51781;BME280;37844;57.126;24.288;2023-02-28T10:53:52;102205.97;;;8.17;100.00
51781;BME280;37844;57.126;24.288;2023-02-28T10:56:28;102215.75;;;7.88;100.00
51781;BME280;37844;57.126;24.288;2023-02-28T11:01:43;102176.88;;;7.80;100.00
51781;BME280;37844;57.126;24.288;2023-02-28T11:04:31;102179.53;;;7.82;100.00
51781;BME280;37844;57.126;24.288;2023-02-28T11:07:17;102179.94;;;7.73;100.00
51781;BME280;37844;57.126;24.288;2023-02-28T11:09:55;102169.13;;;7.79;100.00
51781;BME280;37844;57.126;24.288;2023-02-28T11:12:34;102166.31;;;7.74;100.00
51781;BME280;37844;57.126;24.288;2023-02-28T11:15:23;102173.44;;;7.80;100.00
51781;BME280;37844;57.126;24.288;2023-02-28T11:18:01;102164.84;;;7.79;100.00
51781;BME280;37844;57.126;24.288;2023-02-28T11:20:37;102167.59;;;7.64;100.00
51781;BME280;37844;57.126;24.288;2023-02-28T11:23:13;102163.75;;;7.56;100.00
51781;BME280;37844;57.126;24.288;2023-02-28T11:25:50;102167.69;;;7.50;100.00
51781;BME280;37844;57.126;24.288;2023-02-28T11:28:33;102171.50;;;7.22;100.00
51781;BME280;37844;57.126;24.288;2023-02-28T11:33:51;102183.50;;;6.89;100.00
51781;BME280;37844;57.126;24.288;2023-02-28T11:36:27;102154.59;;;6.75;100.00
51781;BME280;37844;57.126;24.288;2023-02-28T11:39:10;102106.09;;;6.62;100.00
51781;BME280;37844;57.126;24.288;2023-02-28T11:44:42;102147.41;;;7.02;100.00
51781;BME280;37844;57.126;24.288;2023-02-28T12:03:41;102161.97;;;6.52;100.00
51781;BME280;37844;57.126;24.288;2023-02-28T12:17:46;102135.56;;;6.37;100.00
51781;BME280;37844;57.126;24.288;2023-02-28T12:20:33;102127.72;;;6.34;100.00
51781;BME280;37844;57.126;24.288;2023-02-28T12:23:39;102130.28;;;6.18;100.00
51781;BME280;37844;57.126;24.288;2023-02-28T12:26:09;102138.97;;;6.05;100.00
51781;BME280;37844;57.126;24.288;2023-02-28T12:28:50;102130.81;;;5.81;100.00
51781;BME280;37844;57.126;24.288;2023-02-28T12:31:28;102134.44;;;5.84;100.00
51781;BME280;37844;57.126;24.288;2023-02-28T12:34:10;102129.56;;;5.89;100.00
51781;BME280;37844;57.126;24.288;2023-02-28T12:36:48;102130.59;;;5.92;100.00
51781;BME280;37844;57.126;24.288;2023-02-28T12:39:32;102120.41;;;5.78;100.00
51781;BME280;37844;57.126;24.288;2023-02-28T12:42:30;102117.88;;;5.78;100.00
51781;BME280;37844;57.126;24.288;2023-02-28T12:45:06;102118.06;;;5.66;100.00
51781;BME280;37844;57.126;24.288;2023-02-28T12:47:44;102133.94;;;5.75;100.00
51781;BME280;37844;57.126;24.288;2023-02-28T12:50:21;102141.19;;;5.67;100.00
51781;BME280;37844;57.126;24.288;2023-02-28T12:55:40;102137.25;;;5.43;100.00
51781;BME280;37844;57.126;24.288;2023-02-28T13:09:16;102107.00;;;5.50;100.00
51781;BME280;37844;57.126;24.288;2023-02-28T13:11:53;102112.47;;;5.42;100.00
51781;BME280;37844;57.126;24.288;2023-02-28T13:14:30;102132.41;;;5.32;100.00
51781;BME280;37844;57.126;24.288;2023-02-28T13:17:17;102138.94;;;5.27;100.00
51781;BME280;37844;57.126;24.288;2023-02-28T13:27:57;102121.69;;;5.08;100.00
51781;BME280;37844;57.126;24.288;2023-02-28T13:44:12;102115.69;;;5.08;100.00
51781;BME280;37844;57.126;24.288;2023-02-28T14:05:22;102103.31;;;4.56;100.00
51781;BME280;37844;57.126;24.288;2023-02-28T14:08:04;102103.66;;;4.62;100.00
51781;BME280;37844;57.126;24.288;2023-02-28T14:10:42;102095.50;;;4.53;100.00
51781;BME280;37844;57.126;24.288;2023-02-28T14:16:00;102099.06;;;4.42;100.00
51781;BME280;37844;57.126;24.288;2023-02-28T14:18:36;102102.22;;;4.38;100.00
51781;BME280;37844;57.126;24.288;2023-02-28T14:29:59;102112.84;;;4.02;100.00
51781;BME280;37844;57.126;24.288;2023-02-28T14:38:20;102127.44;;;4.05;100.00
51781;BME280;37844;57.126;24.288;2023-02-28T14:40:57;102119.91;;;3.93;100.00
51781;BME280;37844;57.126;24.288;2023-02-28T14:43:33;102127.38;;;3.90;100.00
51781;BME280;37844;57.126;24.288;2023-02-28T14:46:14;102122.09;;;3.87;100.00
51781;BME280;37844;57.126;24.288;2023-02-28T14:48:50;102100.25;;;3.77;100.00
51781;BME280;37844;57.126;24.288;2023-02-28T14:51:26;102098.66;;;3.79;100.00
51781;BME280;37844;57.126;24.288;2023-02-28T14:54:02;102100.03;;;3.74;100.00
51781;BME280;37844;57.126;24.288;2023-02-28T14:56:38;102104.16;;;3.72;100.00
51781;BME280;37844;57.126;24.288;2023-02-28T14:59:24;102106.63;;;3.71;100.00
51781;BME280;37844;57.126;24.288;2023-02-28T15:02:16;102107.41;;;3.70;100.00
51781;BME280;37844;57.126;24.288;2023-02-28T15:04:56;102104.56;;;3.65;100.00
51781;BME280;37844;57.126;24.288;2023-02-28T15:07:31;102102.53;;;3.59;100.00
51781;BME280;37844;57.126;24.288;2023-02-28T15:10:13;102115.97;;;3.57;100.00
51781;BME280;37844;57.126;24.288;2023-02-28T15:12:59;102113.22;;;3.54;100.00
51781;BME280;37844;57.126;24.288;2023-02-28T15:18:14;102112.59;;;3.58;100.00
51781;BME280;37844;57.126;24.288;2023-02-28T15:20:51;102094.47;;;3.53;100.00
51781;BME280;37844;57.126;24.288;2023-02-28T15:23:27;102096.53;;;3.59;100.00
51781;BME280;37844;57.126;24.288;2023-02-28T15:26:03;102114.88;;;3.53;100.00
51781;BME280;37844;57.126;24.288;2023-02-28T15:28:38;102091.75;;;3.50;100.00
51781;BME280;37844;57.126;24.288;2023-02-28T15:31:25;102095.28;;;3.52;100.00
51781;BME280;37844;57.126;24.288;2023-02-28T15:34:05;102114.88;;;3.53;100.00
51781;BME280;37844;57.126;24.288;2023-02-28T15:36:40;102109.75;;;3.53;100.00
51781;BME280;37844;57.126;24.288;2023-02-28T15:39:23;102109.09;;;3.43;100.00
51781;BME280;37844;57.126;24.288;2023-02-28T15:42:12;102103.03;;;3.40;100.00
51781;BME280;37844;57.126;24.288;2023-02-28T15:44:51;102107.81;;;3.36;100.00
51781;BME280;37844;57.126;24.288;2023-02-28T15:47:27;102119.56;;;3.34;100.00
51781;BME280;37844;57.126;24.288;2023-02-28T15:50:08;102117.53;;;3.28;100.00
51781;BME280;37844;57.126;24.288;2023-02-28T15:52:45;102123.69;;;3.18;100.00
51781;BME280;37844;57.126;24.288;2023-02-28T15:55:22;102115.25;;;3.19;100.00
51781;BME280;37844;57.126;24.288;2023-02-28T15:58:00;102129.19;;;3.11;100.00
51781;BME280;37844;57.126;24.288;2023-02-28T16:00:36;102131.91;;;3.14;100.00
51781;BME280;37844;57.126;24.288;2023-02-28T16:03:27;102136.03;;;3.12;100.00
51781;BME280;37844;57.126;24.288;2023-02-28T16:09:09;102132.88;;;3.03;100.00
51781;BME280;37844;57.126;24.288;2023-02-28T16:11:45;102139.63;;;3.03;100.00